Latest Coastal Weather Observations for Onslow Airport

IDW60701

Issued at 10:22 pm WST Thursday 29 January 2015 (issued every 10 minutes, with the page automatically refreshed every 10 minutes)

About coastal observations | Map of coastal stations | Coastal observations for WA | Marine services | Other Formats
Station Details ID: 005017 Name: ONSLOW AIRPORT Lat: -21.67 Lon: 115.11 Height: 10.5 m
Data from the previous 72 hours. | See also: Recent months at Onslow Airport
Date/Time
WST
Temp

°C
Wind Pressure Rain
since 9am
mm
Weather Cloud Vis
km
Sea
Height
m
Swell
Dir
 
Speed
knots
Gust
knots
hPa Trend Height
m
Period
s
Dir
29/10:00pm 27.5 WSW 12 17 1006.7 - 0.0 - - - - - - -
29/09:30pm 27.7 WSW 11 15 1006.5 - 0.0 - - - - - - -
29/09:00pm 28.0 WSW 11 14 1006.1 - 0.0 - - - - - - -
29/08:30pm 28.0 WSW 9 11 1005.8 - 0.0 - - - - - - -
29/08:00pm 28.1 W 11 15 1005.2 - 0.0 - - - - - - -
29/07:30pm 28.0 W 13 17 1004.6 - 0.0 - - - - - - -
29/07:00pm 27.8 W 18 22 1004.2 - 0.0 - - - - - - -
29/06:30pm 28.1 WNW 18 23 1003.9 - 0.0 - - - - - - -
29/06:00pm 28.7 WNW 19 24 1003.8 - 0.0 - - - - - - -
29/05:30pm 28.8 WNW 19 23 1003.7 - 0.0 - - - - - - -
29/05:00pm 29.0 WNW 20 25 1003.6 - 0.0 - - - - - - -
29/04:30pm 29.3 WNW 22 27 1003.5 - 0.0 - - - - - - -
29/04:00pm 29.6 NW 20 24 1003.8 - 0.0 - - - - - - -
29/03:30pm 30.2 NW 20 23 1004.2 - 0.0 - - - - - - -
29/03:00pm 30.6 WNW 19 23 1004.7 - 0.0 - - - - - - -
29/02:30pm 31.0 WNW 18 23 1005.0 - 0.0 - - - - - - -
29/02:00pm 30.2 WNW 18 21 1005.3 - 0.0 - - - - - - -
29/01:30pm 30.4 WNW 19 24 1005.6 - 0.0 - - - - - - -
29/01:00pm 30.0 WNW 18 22 1005.7 - 0.0 - - - - - - -
29/12:30pm 30.7 WNW 18 23 1006.0 - 0.0 - - - - - - -
29/12:00pm 30.7 WNW 16 21 1006.2 - 0.0 - - - - - - -
29/11:30am 30.6 WNW 16 19 1006.6 - 0.0 - - - - - - -
29/11:00am 30.9 WNW 14 17 1006.8 - 0.0 - - - - - - -
29/10:30am 30.4 WNW 11 15 1006.9 - 0.0 - - - - - - -
29/10:00am 30.7 SSW 6 10 1007.1 - 0.0 - - - - - - -
29/09:30am 30.1 SSW 8 11 1007.3 - 0.0 - - - - - - -
29/09:00am 28.2 SW 7 10 1007.3 - 0.0 - - - - - - -
29/08:30am 27.8 SSW 9 12 1007.3 - 0.0 - - - - - - -
29/08:00am 26.6 SW 11 15 1007.2 - 0.0 - - - - - - -
29/07:30am 25.7 SW 12 15 1007.2 - 0.0 - - - - - - -
29/07:00am 25.2 WSW 10 13 1006.9 - 0.0 - - - - - - -
29/06:30am 24.5 SW 8 11 1006.7 - 0.0 - - - - - - -
29/06:00am 24.1 WSW 7 9 1006.2 - 0.0 - - - - - - -
29/05:30am 24.1 WSW 9 12 1005.9 - 0.0 - - - - - - -
29/05:00am 24.3 WSW 9 13 1005.7 - 0.0 - - - - - - -
29/04:30am 24.1 WSW 9 12 1005.5 - 0.0 - - - - - - -
29/04:00am 23.8 WSW 8 11 1005.2 - 0.0 - - - - - - -
29/03:30am 23.7 W 7 9 1005.3 - 0.0 - - - - - - -
29/03:00am 24.0 WSW 7 10 1005.1 - 0.0 - - - - - - -
29/02:30am 24.3 WSW 9 12 1005.0 - 0.0 - - - - - - -
29/02:00am 24.3 WSW 9 12 1005.3 - 0.0 - - - - - - -
29/01:30am 24.7 SW 12 16 1005.6 - 0.0 - - - - - - -
29/01:00am 24.9 SW 13 17 1005.9 - 0.0 - - - - - - -
29/12:30am 25.2 SW 14 17 1006.1 - 0.0 - - - - - - -
29/12:00am 25.3 SW 13 17 1006.3 - 0.0 - - - - - - -
 
Date/Time
WST
Temp

°C
Wind Pressure Rain
since 9am
mm
Weather Cloud Vis
km
Sea
Height
m
Swell
Dir
 
Speed
knots
Gust
knots
hPa Trend Height
m
Period
s
Dir
28/11:30pm 25.5 WSW 13 17 1006.5 - 0.0 - - - - - - -
28/11:00pm 25.9 SW 16 20 1006.4 - 0.0 - - - - - - -
28/10:30pm 26.3 WSW 14 18 1006.4 - 0.0 - - - - - - -
28/10:00pm 26.4 WSW 14 20 1006.1 - 0.0 - - - - - - -
28/09:30pm 26.6 WSW 15 19 1005.7 - 0.0 - - - - - - -
28/09:00pm 27.0 WSW 15 20 1005.7 - 0.0 - - - - - - -
28/08:30pm 27.2 WSW 13 18 1005.6 - 0.0 - - - - - - -
28/08:00pm 27.1 W 14 19 1005.3 - 0.0 - - - - - - -
28/07:30pm 27.1 W 16 22 1004.9 - 0.0 - - - - - - -
28/07:00pm 27.4 W 18 23 1004.7 - 0.0 - - - - - - -
28/06:30pm 27.9 W 18 24 1004.5 - 0.0 - - - - - - -
28/06:00pm 28.4 W 19 25 1004.3 - 0.0 - - - - - - -
28/05:30pm 29.2 W 19 25 1004.2 - 0.0 - - - - - - -
28/05:00pm 29.4 W 19 24 1004.1 - 0.0 - - - - - - -
28/04:30pm 29.1 W 20 24 1004.3 - 0.0 - - - - - - -
28/04:00pm 29.4 WNW 20 25 1004.5 - 0.0 - - - - - - -
28/03:30pm 29.1 WNW 20 24 1004.7 - 0.0 - - - - - - -
28/03:00pm 30.0 WNW 20 24 1005.0 - 0.0 - - - - - - -
28/02:30pm 30.4 WNW 20 27 1005.1 - 0.0 - - - - - - -
28/02:00pm 30.4 WNW 21 26 1005.4 - 0.0 - - - - - - -
28/01:30pm 30.6 WNW 20 26 1005.6 - 0.0 - - - - - - -
28/01:00pm 30.4 WNW 19 24 1005.9 - 0.0 - - - - - - -
28/12:30pm 30.9 WNW 17 21 1006.3 - 0.0 - - - - - - -
28/12:00pm 29.7 WNW 16 21 1006.9 - 0.0 - - - - - - -
28/11:30am 30.3 WNW 13 17 1007.1 - 0.0 - - - - - - -
28/11:00am 30.3 WNW 12 16 1007.3 - 0.0 - - - - - - -
28/10:30am 29.7 SW 8 11 1007.6 - 0.0 - - - - - - -
28/10:00am 29.3 SSW 7 10 1007.7 - 0.0 - - - - - - -
28/09:30am 27.7 SSW 7 9 1008.1 - 0.0 - - - - - - -
28/09:00am 27.6 S 8 10 1008.1 - 0.0 - - - - - - -
28/08:30am 26.4 SSW 10 14 1007.9 - 0.0 - - - - - - -
28/08:00am 25.5 SSW 13 16 1007.5 - 0.0 - - - - - - -
28/07:30am 24.7 SSW 13 16 1007.4 - 0.0 - - - - - - -
28/07:00am 24.2 SSW 13 16 1007.3 - 0.0 - - - - - - -
28/06:30am 23.4 SSW 11 13 1007.0 - 0.0 - - - - - - -
28/06:00am 23.0 SSW 10 12 1006.6 - 0.0 - - - - - - -
28/05:30am 23.0 SSW 10 12 1006.5 - 0.0 - - - - - - -
28/05:00am 23.2 SSW 10 12 1006.3 - 0.0 - - - - - - -
28/04:30am 23.1 SW 6 7 1006.2 - 0.0 - - - - - - -
28/04:00am 23.5 SSW 9 11 1006.3 - 0.0 - - - - - - -
28/03:30am 23.6 SSW 10 13 1006.0 - 0.0 - - - - - - -
28/03:00am 23.7 SW 9 11 1005.9 - 0.0 - - - - - - -
28/02:30am 24.0 SW 11 15 1005.8 - 0.0 - - - - - - -
28/02:00am 24.1 SW 11 13 1005.8 - 0.0 - - - - - - -
28/01:30am 24.4 SW 10 14 1006.0 - 0.0 - - - - - - -
28/01:00am 24.7 SW 12 16 1006.0 - 0.0 - - - - - - -
28/12:30am 24.8 WSW 9 11 1006.3 - 0.0 - - - - - - -
28/12:00am 25.2 WSW 11 14 1006.4 - 0.0 - - - - - - -
 
Date/Time
WST
Temp

°C
Wind Pressure Rain
since 9am
mm
Weather Cloud Vis
km
Sea
Height
m
Swell
Dir
 
Speed
knots
Gust
knots
hPa Trend Height
m
Period
s
Dir
27/11:30pm 25.4 WSW 11 15 1006.4 - 0.0 - - - - - - -
27/11:00pm 25.8 WSW 13 17 1006.5 - 0.0 - - - - - - -
27/10:30pm 26.0 WSW 11 14 1006.4 - 0.0 - - - - - - -
27/10:00pm 26.1 WSW 10 14 1006.3 - 0.0 - - - - - - -
27/09:30pm 26.5 WSW 11 15 1006.3 - 0.0 - - - - - - -
27/09:00pm 26.6 W 12 17 1006.1 - 0.0 - - - - - - -
27/08:30pm 26.7 W 14 18 1006.1 - 0.0 - - - - - - -
27/08:00pm 26.8 W 13 16 1006.0 - 0.0 - - - - - - -
27/07:30pm 26.8 W 14 19 1005.9 - 0.0 - - - - - - -
27/07:00pm 27.0 W 14 19 1005.7 - 0.0 - - - - - - -
27/06:30pm 27.5 W 16 21 1005.6 - 0.0 - - - - - - -
27/06:00pm 27.8 W 18 22 1005.4 - 0.0 - - - - - - -
27/05:30pm 28.5 W 19 23 1005.1 - 0.0 - - - - - - -
27/05:00pm 28.9 W 19 24 1005.1 - 0.0 - - - - - - -
27/04:30pm 28.6 WNW 20 24 1005.2 - 0.0 - - - - - - -
27/04:00pm 29.3 WNW 17 21 1005.5 - 0.0 - - - - - - -
27/03:30pm 29.6 WNW 18 22 1005.8 - 0.0 - - - - - - -
27/03:00pm 29.4 WNW 16 22 1006.0 - 0.0 - - - - - - -
27/02:30pm 29.6 WNW 16 21 1006.0 - 0.0 - - - - - - -
27/02:00pm 29.2 WNW 16 21 1006.1 - 0.0 - - - - - - -
27/01:30pm 29.1 WNW 14 18 1006.5 - 0.0 - - - - - - -
27/01:00pm 29.5 NW 13 19 1006.9 - 0.0 - - - - - - -
27/12:30pm 29.5 NW 12 16 1007.2 - 0.0 - - - - - - -
27/12:00pm 28.9 WNW 12 19 1007.6 - 0.0 - - - - - - -
27/11:30am 29.6 WNW 11 16 1007.9 - 0.0 - - - - - - -
27/11:00am 29.5 NW 13 17 1008.1 - 0.0 - - - - - - -
27/10:30am 28.4 NW 11 16 1008.4 - 0.0 - - - - - - -
27/10:00am 28.3 NW 9 13 1008.4 - 0.0 - - - - - - -
27/09:30am 27.6 NW 10 13 1008.4 - 0.0 - - - - - - -
27/09:00am 27.9 WSW 6 10 1008.2 - 0.0 - - - - - - -
27/08:30am 26.6 SW 8 12 1008.1 - 0.0 - - - - - - -
27/08:00am 26.0 SSW 7 9 1007.9 - 0.0 - - - - - - -
27/07:30am 25.1 S 7 8 1007.8 - 0.0 - - - - - - -
27/07:00am 24.4 S 7 8 1007.7 - 0.0 - - - - - - -
27/06:30am 23.3 S 6 7 1007.5 - 0.0 - - - - - - -
27/06:00am 22.8 S 6 7 1007.2 - 0.0 - - - - - - -
27/05:30am 22.9 SSW 5 7 1006.9 - 0.0 - - - - - - -
27/05:00am 23.2 SSW 7 8 1006.6 - 0.0 - - - - - - -
27/04:30am 23.2 SSW 6 7 1006.5 - 0.0 - - - - - - -
27/04:00am 23.3 SW 6 7 1006.5 - 0.0 - - - - - - -
27/03:30am 23.7 SW 7 10 1006.6 - 0.0 - - - - - - -
27/03:00am 24.0 SW 12 14 1006.1 - 0.0 - - - - - - -
27/02:30am 24.3 SW 11 16 1006.3 - 0.0 - - - - - - -
27/02:00am 24.4 SW 13 17 1006.5 - 0.0 - - - - - - -
27/01:30am 24.4 SW 13 16 1006.5 - 0.0 - - - - - - -
27/01:00am 24.6 SW 12 16 1006.6 - 0.0 - - - - - - -
27/12:30am 24.6 SW 14 17 1006.5 - 0.0 - - - - - - -
27/12:00am 25.0 SW 11 15 1006.7 - 0.0 - - - - - - -
 
Date/Time
WST
Temp

°C
Wind Pressure Rain
since 9am
mm
Weather Cloud Vis
km
Sea
Height
m
Swell
Dir
 
Speed
knots
Gust
knots
hPa Trend Height
m
Period
s
Dir
26/11:30pm 25.2 SW 13 16 1007.0 - 0.0 - - - - - - -
26/11:00pm 25.6 SW 14 19 1006.8 - 0.0 - - - - - - -
26/10:30pm 26.0 WSW 14 18 1006.7 - 0.0 - - - - - - -

Other Formats:

Comma delimited format used in spreadsheet applications
http://www.bom.gov.au/fwo/IDW60701/IDW60701.95305.axf

JavaScript Object Notation format (JSON) in row-major order
http://www.bom.gov.au/fwo/IDW60701/IDW60701.95305.json